Alta, Wyoming
Current Conditions -  °F | °C
As of 10:56 PM on Tuesday 21 Oct 2014 (Local Time) from KDIJ Reporting Station
Overcast Overcast  
Wind Chill:   Ceiling: 4700
Heat Index:   Visibility: 10mi
Dew Point:   Wind: 6mph
Humidity: 76%   Direction: 170°S
Pressure: 30.11"   Gusts: NA
Location:  43.77°N, 110.98°W
Report Text: KDIJ 220456Z AUTO 17005KT 10SM BKN047 OVC065 04/00 A3011 RMK AO2 T00380000 BKN V OVC SLP166
Loading
Personal Weather Stations






























Interactive Weather Map New forecast layout! Learn more

10-Day Weather Forecast

Advertisements
Track Severe Weather on mobile